Tolar, New Mexico
Current Conditions -  °F | °C
As of 7:56 AM on Saturday 01 Nov 2014 (Local Time) from K4MR Reporting Station
Clear Clear  
Wind Chill: 37°   Ceiling: Unl
Heat Index: 40°   Visibility: 10mi
Dew Point: 31°   Wind: 5mph
Humidity: 70%   Direction: 140°SE
Pressure: 30.28"   Gusts: NA
Location:  34.3861°N, 104.044°W
Report Text: K4MR 011356Z AUTO 14004KT 10SM CLR 05/00 A3028 RMK AO2 SLP244 T00461005
Loading
Personal Weather Stations






























Interactive Weather Map New forecast layout! Learn more

10-Day Weather Forecast

Advertisements
Track Severe Weather on mobile